Time;durP1;ratioP1;P1;durP2;ratioP2;P2;SDS_P1;SDS_P2;PMS_P1;PMS_P2;Temp;Humidity;BMP_temperature;BMP_pressure;BME280_temperature;BME280_humidity;BME280_pressure;Samples;Min_cycle;Max_cycle;Signal;HPM_P1;HPM_P2
2023/08/10 00:01:18;;;;;;;;;12.00;12.00;;;;;20.80;45.94;101121.41;110238;1265;20095;-40
2023/08/10 00:03:44;;;;;;;;;;;;;;;20.84;45.76;101119.34;110247;1250;20774;-40
2023/08/10 00:06:11;;;;;;;;;14.50;13.00;;;;;20.86;46.00;101125.17;110241;1265;18347;-40
2023/08/10 00:08:37;;;;;;;;;13.33;12.00;;;;;20.86;45.93;101121.52;110283;1251;20160;-39
2023/08/10 00:11:02;;;;;;;;;14.50;14.50;;;;;20.84;45.93;101122.34;110353;1251;20548;-39
2023/08/10 00:13:29;;;;;;;;;12.00;12.00;;;;;20.85;46.07;101126.26;110364;1265;18338;-39
2023/08/10 00:15:55;;;;;;;;;11.00;11.00;;;;;20.85;45.82;101121.91;110304;1260;18710;-39
2023/08/10 00:18:21;;;;;;;;;12.00;11.00;;;;;20.83;46.06;101123.15;110283;1265;22078;-40
2023/08/10 00:20:47;;;;;;;;;14.00;14.00;;;;;20.84;46.04;101125.17;110270;1265;18553;-39
2023/08/10 00:23:13;;;;;;;;;12.00;11.00;;;;;20.85;45.98;101128.23;110193;1250;20416;-39
2023/08/10 00:25:39;;;;;;;;;11.00;10.00;;;;;20.87;45.83;101133.52;110291;1265;23142;-39
2023/08/10 00:28:05;;;;;;;;;13.00;12.00;;;;;20.88;46.00;101135.11;110283;1251;23011;-40
2023/08/10 00:30:31;;;;;;;;;14.00;12.00;;;;;20.90;45.69;101137.79;110264;1265;18600;-39
2023/08/10 00:32:57;;;;;;;;;12.00;10.00;;;;;20.89;45.82;101132.55;110273;1265;22380;-39
2023/08/10 00:35:23;;;;;;;;;12.00;11.00;;;;;20.88;45.77;101132.71;110261;1265;19783;-40
2023/08/10 00:37:49;;;;;;;;;11.00;11.00;;;;;20.88;45.85;101134.19;110274;1250;20124;-40
2023/08/10 00:40:15;;;;;;;;;14.00;14.00;;;;;20.88;45.99;101134.62;110255;1251;21188;-40
2023/08/10 00:42:41;;;;;;;;;14.00;12.00;;;;;20.88;45.98;101134.45;110286;1249;19879;-40
2023/08/10 00:45:07;;;;;;;;;12.00;11.00;;;;;20.88;46.00;101124.92;110319;1265;18485;-40
2023/08/10 00:47:33;;;;;;;;;15.00;12.00;;;;;20.88;45.98;101127.00;110300;1257;20574;-40
2023/08/10 00:49:59;;;;;;;;;17.00;14.50;;;;;20.88;45.78;101129.44;110332;1265;19814;-40
2023/08/10 00:52:25;;;;;;;;;11.00;11.00;;;;;20.88;45.91;101132.60;110288;1265;22474;-39
2023/08/10 00:54:51;;;;;;;;;12.00;11.00;;;;;20.88;45.93;101128.20;110236;1251;22391;-40
2023/08/10 00:57:17;;;;;;;;;11.00;11.00;;;;;20.88;45.95;101128.58;110277;1250;18662;-40
2023/08/10 00:59:43;;;;;;;;;9.00;9.00;;;;;20.88;45.87;101124.70;110260;1265;18450;-40
2023/08/10 01:02:09;;;;;;;;;9.00;9.00;;;;;20.87;45.85;101126.71;110288;1250;19075;-39
2023/08/10 01:04:35;;;;;;;;;10.67;10.67;;;;;20.88;46.08;101128.73;110255;1251;21572;-40
2023/08/10 01:07:01;;;;;;;;;14.00;11.00;;;;;20.88;45.97;101131.63;110274;1265;19810;-40
2023/08/10 01:09:27;;;;;;;;;11.00;11.00;;;;;20.89;45.81;101127.71;110268;1257;19034;-39
2023/08/10 01:11:53;;;;;;;;;9.67;9.67;;;;;20.86;45.98;101126.77;110285;1250;22743;-39
2023/08/10 01:14:19;;;;;;;;;11.00;11.00;;;;;20.85;46.15;101124.46;110345;1250;20126;-39
2023/08/10 01:16:45;;;;;;;;;10.00;10.00;;;;;20.83;46.25;101121.94;110355;1257;20568;-40
2023/08/10 01:19:11;;;;;;;;;13.00;12.00;;;;;20.78;46.12;101122.10;110323;1251;19805;-38
2023/08/10 01:21:37;;;;;;;;;15.00;14.00;;;;;20.74;46.16;101120.50;110368;1251;20068;-38
2023/08/10 01:24:03;;;;;;;;;11.00;11.00;;;;;20.73;46.19;101125.66;110301;1265;19509;-38
2023/08/10 01:26:29;;;;;;;;;9.00;9.00;;;;;20.71;46.18;101128.15;110314;1257;19975;-38
2023/08/10 01:28:55;;;;;;;;;11.00;11.00;;;;;20.72;46.23;101127.83;110363;1249;20128;-39
2023/08/10 01:31:21;;;;;;;;;11.50;11.50;;;;;20.72;46.34;101128.80;110343;1250;21891;-39
2023/08/10 01:33:48;;;;;;;;;12.00;12.00;;;;;20.70;46.44;101127.27;110351;1257;19615;-39
2023/08/10 01:36:14;;;;;;;;;11.67;9.00;;;;;20.68;46.70;101131.95;110343;1251;21266;-39
2023/08/10 01:38:39;;;;;;;;;12.00;9.00;;;;;20.68;46.68;101132.81;110270;1251;21859;-39
2023/08/10 01:41:05;;;;;;;;;13.00;12.00;;;;;20.69;46.61;101138.21;110275;1250;19844;-39
2023/08/10 01:43:31;;;;;;;;;14.50;14.00;;;;;20.69;46.92;101136.46;110328;1249;20039;-38
2023/08/10 01:45:57;;;;;;;;;14.00;12.00;;;;;20.68;46.87;101138.69;110355;1265;19041;-40
2023/08/10 01:48:23;;;;;;;;;10.00;10.00;;;;;20.65;47.03;101137.04;110377;1257;18342;-40
2023/08/10 01:50:49;;;;;;;;;11.00;9.00;;;;;20.67;47.12;101139.45;110303;1265;18593;-39
2023/08/10 01:53:15;;;;;;;;;13.00;11.50;;;;;20.68;47.26;101135.86;110300;1250;20961;-38
2023/08/10 01:55:41;;;;;;;;;12.33;12.33;;;;;20.68;47.25;101137.45;110352;1251;20059;-39
2023/08/10 01:58:07;;;;;;;;;11.00;11.00;;;;;20.70;47.40;101136.58;110338;1250;22641;-39
2023/08/10 02:00:37;;;;;;;;;17.00;14.00;;;;;20.71;47.48;101141.98;110315;1250;20472;-40
2023/08/10 02:03:03;;;;;;;;;11.00;11.00;;;;;20.71;47.25;101142.14;110277;1265;22246;-39
2023/08/10 02:05:29;;;;;;;;;15.00;12.00;;;;;20.71;47.27;101143.45;110291;1265;18741;-39
2023/08/10 02:07:55;;;;;;;;;10.00;8.00;;;;;20.66;47.22;101137.91;110277;1250;20896;-37
2023/08/10 02:10:21;;;;;;;;;12.00;11.00;;;;;20.66;47.09;101145.42;110264;1265;18364;-40
2023/08/10 02:12:47;;;;;;;;;12.50;11.00;;;;;20.68;47.06;101149.63;110273;1249;19859;-39
2023/08/10 02:15:13;;;;;;;;;11.00;11.00;;;;;20.67;46.87;101146.63;110260;1249;19166;-40
2023/08/10 02:17:39;;;;;;;;;14.00;12.00;;;;;20.66;46.73;101151.96;110296;1265;18549;-40
2023/08/10 02:20:09;;;;;;;;;11.00;11.00;;;;;20.65;46.74;101152.11;110291;1250;19870;-40
2023/08/10 02:22:35;;;;;;;;;10.00;10.00;;;;;20.65;46.80;101151.46;110322;1249;22306;-39
2023/08/10 02:25:01;;;;;;;;;12.00;11.00;;;;;20.66;46.73;101151.90;110260;1251;19721;-40
2023/08/10 02:27:27;;;;;;;;;10.00;10.00;;;;;20.66;46.65;101149.73;110327;1265;22591;-40
2023/08/10 02:29:53;;;;;;;;;12.00;12.00;;;;;20.65;46.69;101150.38;110297;1250;22936;-40
2023/08/10 02:32:19;;;;;;;;;12.00;11.50;;;;;20.63;46.79;101146.44;110341;1251;18342;-40
2023/08/10 02:34:45;;;;;;;;;12.00;12.00;;;;;20.64;46.58;101145.41;110265;1265;18678;-40
2023/08/10 02:37:10;;;;;;;;;11.00;11.00;;;;;20.60;46.76;101145.54;110283;1250;20417;-40
2023/08/10 02:39:36;;;;;;;;;11.00;10.00;;;;;20.58;46.97;101145.41;110306;1251;19852;-39
2023/08/10 02:42:02;;;;;;;;;10.50;10.50;;;;;20.54;47.08;101148.21;110297;1251;19837;-40
2023/08/10 02:44:28;;;;;;;;;12.00;12.00;;;;;20.53;47.18;101148.52;110258;1250;22988;-39
2023/08/10 02:46:54;;;;;;;;;17.00;13.00;;;;;20.50;47.15;101147.84;110284;1265;19764;-40
2023/08/10 02:49:20;;;;;;;;;17.00;14.00;;;;;20.47;47.56;101148.57;110269;1250;22790;-40
2023/08/10 02:51:46;;;;;;;;;15.00;15.00;;;;;20.46;47.53;101149.98;110301;1257;23068;-39
2023/08/10 02:54:12;;;;;;;;;12.00;11.00;;;;;20.49;47.34;101155.40;110297;1251;19790;-40
2023/08/10 02:56:38;;;;;;;;;11.00;11.00;;;;;20.53;47.26;101161.86;110302;1265;18621;-40
2023/08/10 02:59:04;;;;;;;;;14.00;14.00;;;;;20.54;47.45;101163.49;110247;1265;22914;-39
2023/08/10 03:01:30;;;;;;;;;15.00;14.00;;;;;20.54;47.47;101159.09;110304;1265;21051;-39
2023/08/10 03:03:56;;;;;;;;;17.00;14.00;;;;;20.51;47.32;101158.68;110327;1249;19823;-39
2023/08/10 03:06:22;;;;;;;;;15.00;12.00;;;;;20.51;47.26;101162.33;110304;1265;20434;-40
2023/08/10 03:08:48;;;;;;;;;14.00;14.00;;;;;20.52;47.15;101163.48;110267;1249;19835;-39
2023/08/10 03:11:14;;;;;;;;;12.00;12.00;;;;;20.53;47.16;101163.39;110250;1250;20032;-38
2023/08/10 03:13:40;;;;;;;;;14.00;13.00;;;;;20.54;47.13;101168.23;110246;1265;19074;-38
2023/08/10 03:16:06;;;;;;;;;17.00;15.00;;;;;20.53;47.21;101173.89;110364;1251;19733;-37
2023/08/10 03:18:31;;;;;;;;;14.00;12.50;;;;;20.52;46.96;101178.23;110325;1251;19900;-39
2023/08/10 03:20:57;;;;;;;;;17.00;15.00;;;;;20.52;46.89;101180.68;110298;1265;20518;-39
2023/08/10 03:23:23;;;;;;;;;15.00;14.00;;;;;20.51;46.97;101185.95;110292;1251;19815;-39
2023/08/10 03:25:49;;;;;;;;;14.00;14.00;;;;;20.48;46.83;101190.87;110282;1251;18451;-39
2023/08/10 03:28:15;;;;;;;;;11.00;11.00;;;;;20.45;46.85;101192.37;110256;1250;22795;-39
2023/08/10 03:30:41;;;;;;;;;12.50;12.50;;;;;20.47;46.62;101195.88;110288;1251;22914;-40
2023/08/10 03:33:07;;;;;;;;;14.00;14.00;;;;;20.47;46.58;101195.55;110267;1251;20302;-40
2023/08/10 03:35:33;;;;;;;;;14.00;12.00;;;;;20.46;46.57;101202.11;110283;1251;20476;-40
2023/08/10 03:37:59;;;;;;;;;11.00;10.50;;;;;20.46;46.60;101201.90;110328;1250;22774;-38
2023/08/10 03:40:26;;;;;;;;;11.00;11.00;;;;;20.44;46.52;101192.36;110268;1265;22824;-39
2023/08/10 03:42:51;;;;;;;;;15.00;14.50;;;;;20.39;46.68;101193.98;110279;1250;21972;-39
2023/08/10 03:45:17;;;;;;;;;11.00;11.00;;;;;20.39;46.33;101197.74;110250;1265;23065;-40
2023/08/10 03:47:43;;;;;;;;;11.00;11.00;;;;;20.38;46.33;101202.67;110286;1250;22426;-40
2023/08/10 03:50:10;;;;;;;;;12.50;11.50;;;;;20.41;46.24;101204.52;110305;1251;22357;-41
2023/08/10 03:52:36;;;;;;;;;11.00;11.00;;;;;20.42;46.23;101203.18;110275;1265;22700;-39
2023/08/10 03:55:02;;;;;;;;;15.00;14.00;;;;;20.42;46.25;101202.13;110242;1251;20104;-40
2023/08/10 03:57:28;;;;;;;;;10.50;10.50;;;;;20.42;46.15;101203.61;110313;1265;19382;-39
2023/08/10 03:59:54;;;;;;;;;12.00;11.00;;;;;20.43;46.02;101203.40;110303;1251;19809;-39
2023/08/10 04:02:20;;;;;;;;;11.50;11.50;;;;;20.45;46.17;101207.17;110317;1261;19761;-39
2023/08/10 04:04:46;;;;;;;;;12.00;11.00;;;;;20.46;46.13;101207.18;110305;1250;20455;-39
2023/08/10 04:07:12;;;;;;;;;10.00;10.00;;;;;20.47;45.87;101207.79;110343;1250;19891;-39
2023/08/10 04:09:39;;;;;;;;;11.00;11.00;;;;;20.49;45.86;101212.98;110271;1265;22940;-39
2023/08/10 04:12:05;;;;;;;;;12.00;12.00;;;;;20.48;46.04;101211.22;110271;1250;22763;-39
2023/08/10 04:14:31;;;;;;;;;10.00;10.00;;;;;20.47;45.99;101214.21;110262;1251;20925;-38
2023/08/10 04:16:57;;;;;;;;;12.00;12.00;;;;;20.47;46.11;101217.32;110254;1265;22773;-39
2023/08/10 04:19:23;;;;;;;;;14.00;14.00;;;;;20.46;46.13;101214.91;110315;1265;22008;-39
2023/08/10 04:21:49;;;;;;;;;11.00;11.00;;;;;20.44;46.03;101216.20;110251;1250;20025;-40
2023/08/10 04:24:15;;;;;;;;;11.00;10.00;;;;;20.44;46.04;101221.30;110291;1249;20050;-39
2023/08/10 04:26:41;;;;;;;;;18.00;12.00;;;;;20.45;46.10;101227.25;110301;1250;19977;-39
2023/08/10 04:29:07;;;;;;;;;14.50;12.00;;;;;20.42;46.12;101232.50;110306;1250;19826;-39
2023/08/10 04:31:33;;;;;;;;;10.00;10.00;;;;;20.40;46.34;101228.34;110267;1257;19808;-39
2023/08/10 04:33:59;;;;;;;;;11.00;11.00;;;;;20.41;46.35;101230.48;110298;1265;19282;-40
2023/08/10 04:36:25;;;;;;;;;12.00;12.00;;;;;20.42;46.46;101230.92;110266;1251;19835;-41
2023/08/10 04:38:52;;;;;;;;;13.00;11.00;;;;;20.41;46.26;101232.55;110164;1251;19893;-39
2023/08/10 04:41:17;;;;;;;;;12.00;11.00;;;;;20.40;46.37;101229.38;110181;1250;20753;-41
2023/08/10 04:43:43;;;;;;;;;10.00;10.00;;;;;20.39;46.37;101228.64;110180;1249;19834;-40
2023/08/10 04:46:10;;;;;;;;;;;;;;;20.36;46.54;101229.04;110255;1250;19894;-39
2023/08/10 04:48:36;;;;;;;;;13.00;11.50;;;;;20.38;46.41;101231.84;110340;1250;22610;-39
2023/08/10 04:51:02;;;;;;;;;14.00;12.00;;;;;20.41;46.44;101232.16;110301;1249;19682;-39
2023/08/10 04:53:27;;;;;;;;;12.00;12.00;;;;;20.40;46.51;101238.45;110310;1265;18478;-40
2023/08/10 04:55:53;;;;;;;;;17.00;14.00;;;;;20.42;46.55;101238.77;110315;1265;19232;-38
2023/08/10 04:58:19;;;;;;;;;11.00;11.00;;;;;20.45;46.34;101240.05;110288;1251;19782;-39
2023/08/10 05:00:45;;;;;;;;;14.00;13.00;;;;;20.46;46.38;101241.42;110306;1265;22812;-38
2023/08/10 05:03:11;;;;;;;;;13.00;11.00;;;;;20.44;46.57;101245.31;110379;1251;20476;-40
2023/08/10 05:05:37;;;;;;;;;11.00;11.00;;;;;20.47;46.45;101244.80;110326;1251;19869;-40
2023/08/10 05:08:03;;;;;;;;;12.50;11.00;;;;;20.45;46.54;101244.79;110269;1251;19954;-39
2023/08/10 05:10:29;;;;;;;;;11.00;10.00;;;;;20.45;46.67;101243.36;110274;1250;20596;-40
2023/08/10 05:12:55;;;;;;;;;12.50;11.00;;;;;20.47;46.71;101242.30;110305;1265;18497;-40
2023/08/10 05:15:21;;;;;;;;;12.00;11.00;;;;;20.49;46.42;101246.18;110280;1265;19704;-39
2023/08/10 05:17:47;;;;;;;;;11.00;10.00;;;;;20.51;46.31;101248.05;110340;1251;20725;-40
2023/08/10 05:20:13;;;;;;;;;10.00;10.00;;;;;20.54;46.03;101250.21;110355;1251;19806;-38
2023/08/10 05:22:39;;;;;;;;;11.00;11.00;;;;;20.53;46.23;101253.80;110284;1265;19982;-39
2023/08/10 05:25:06;;;;;;;;;11.00;10.00;;;;;20.56;46.15;101253.16;110322;1251;19598;-40
2023/08/10 05:27:31;;;;;;;;;10.00;10.00;;;;;20.58;46.10;101255.65;110269;1265;18681;-39
2023/08/10 05:29:57;;;;;;;;;10.00;8.00;;;;;20.58;46.41;101254.82;110304;1251;19849;-40
2023/08/10 05:32:24;;;;;;;;;10.00;10.00;;;;;20.59;46.29;101255.82;110276;1265;19137;-39
2023/08/10 05:34:50;;;;;;;;;8.00;8.00;;;;;20.61;46.15;101254.80;110261;1265;18627;-40
2023/08/10 05:37:17;;;;;;;;;13.00;11.00;;;;;20.63;46.44;101255.36;110283;1251;19802;-39
2023/08/10 05:39:43;;;;;;;;;12.00;10.00;;;;;20.62;46.43;101252.14;110271;1251;20772;-39
2023/08/10 05:42:08;;;;;;;;;11.00;10.00;;;;;20.61;46.61;101257.36;110295;1265;23024;-39
2023/08/10 05:44:34;;;;;;;;;10.00;10.00;;;;;20.63;46.44;101260.75;110292;1251;22948;-40
2023/08/10 05:47:00;;;;;;;;;10.00;8.00;;;;;20.65;46.59;101264.20;110262;1250;22209;-40
2023/08/10 05:49:26;;;;;;;;;10.00;8.00;;;;;20.67;46.59;101264.55;110285;1251;23001;-40
2023/08/10 05:51:52;;;;;;;;;11.00;10.00;;;;;20.69;46.57;101264.52;110267;1249;19939;-39
2023/08/10 05:54:18;;;;;;;;;11.50;9.00;;;;;20.68;46.64;101267.39;110329;1265;19120;-39
2023/08/10 05:56:44;;;;;;;;;10.00;10.00;;;;;20.67;46.93;101267.50;110347;1251;19779;-40
2023/08/10 05:59:10;;;;;;;;;9.00;7.50;;;;;20.71;46.71;101268.99;110286;1251;21119;-39
2023/08/10 06:01:36;;;;;;;;;7.00;7.00;;;;;20.72;47.00;101272.77;110313;1249;20397;-39
2023/08/10 06:04:04;;;;;;;;;8.00;8.00;;;;;20.74;46.77;101268.65;110294;1265;18171;-40
2023/08/10 06:06:30;;;;;;;;;10.00;10.00;;;;;20.77;46.75;101273.04;110307;1251;20217;-39
2023/08/10 06:08:56;;;;;;;;;7.00;7.00;;;;;20.80;46.96;101268.64;110298;1257;19252;-38
2023/08/10 06:11:22;;;;;;;;;11.50;11.50;;;;;20.84;46.52;101272.14;110250;1265;18564;-39
2023/08/10 06:13:48;;;;;;;;;10.00;10.00;;;;;20.87;46.81;101272.45;110300;1250;19917;-40
2023/08/10 06:16:14;;;;;;;;;9.00;9.00;;;;;20.92;46.58;101270.58;110259;1250;20579;-40
2023/08/10 06:18:40;;;;;;;;;7.00;7.00;;;;;20.96;46.66;101273.02;110310;1265;18345;-40
2023/08/10 06:21:06;;;;;;;;;8.00;8.00;;;;;20.99;46.71;101275.01;110342;1265;18382;-38
2023/08/10 06:23:33;;;;;;;;;9.00;8.00;;;;;21.00;46.73;101275.89;110275;1251;20562;-38
2023/08/10 06:26:00;;;;;;;;;7.00;7.00;;;;;21.05;46.97;101269.33;110272;1251;19949;-39
2023/08/10 06:28:26;;;;;;;;;5.00;5.00;;;;;21.09;46.59;101267.63;110261;1265;21667;-38
2023/08/10 06:30:52;;;;;;;;;8.50;7.00;;;;;21.10;46.88;101264.91;110197;1265;19091;-39
2023/08/10 06:33:19;;;;;;;;;7.50;7.00;;;;;21.14;46.48;101267.18;110323;1265;19774;-39
2023/08/10 06:35:45;;;;;;;;;7.00;7.00;;;;;21.16;46.73;101266.55;110349;1266;22799;-38
2023/08/10 06:38:11;;;;;;;;;8.00;8.00;;;;;21.13;46.82;101267.23;110329;1250;21135;-39
2023/08/10 06:40:38;;;;;;;;;8.00;8.00;;;;;21.19;46.62;101271.25;110332;1265;18417;-39
2023/08/10 06:43:04;;;;;;;;;7.00;7.00;;;;;21.22;46.71;101275.55;110357;1265;20212;-39
2023/08/10 06:45:30;;;;;;;;;5.00;5.00;;;;;21.20;47.16;101279.83;110306;1265;20716;-38
2023/08/10 06:47:56;;;;;;;;;5.00;5.00;;;;;21.27;46.75;101279.70;110345;1265;20226;-39
2023/08/10 06:50:22;;;;;;;;;7.00;7.00;;;;;21.33;46.59;101280.66;110330;1265;19812;-38
2023/08/10 06:52:48;;;;;;;;;7.00;5.00;;;;;21.36;46.52;101283.46;110284;1265;19624;-39
2023/08/10 06:55:14;;;;;;;;;7.00;7.00;;;;;21.41;46.58;101287.54;110281;1251;19405;-39
2023/08/10 06:57:41;;;;;;;;;5.00;5.00;;;;;21.46;46.44;101288.44;110311;1250;22486;-39
2023/08/10 07:00:07;;;;;;;;;6.00;6.00;;;;;21.43;46.42;101288.69;110300;1250;20778;-39
2023/08/10 07:02:33;;;;;;;;;4.00;4.00;;;;;21.46;46.19;101291.48;110353;1249;19621;-39
2023/08/10 07:04:59;;;;;;;;;7.00;7.00;;;;;21.49;46.30;101293.91;110344;1265;18373;-39
2023/08/10 07:07:26;;;;;;;;;7.00;7.00;;;;;21.47;45.77;101297.28;110372;1265;22744;-39
2023/08/10 07:09:52;;;;;;;;;8.00;5.00;;;;;21.48;45.62;101301.31;110341;1265;18438;-40
2023/08/10 07:12:18;;;;;;;;;7.00;7.00;;;;;21.46;45.62;101301.58;110270;1249;19784;-40
2023/08/10 07:14:44;;;;;;;;;5.00;5.00;;;;;21.45;45.71;101303.59;110238;1250;20757;-39
2023/08/10 07:17:10;;;;;;;;;5.00;5.00;;;;;21.45;45.61;101303.47;110280;1257;22824;-39
2023/08/10 07:19:36;;;;;;;;;7.00;4.00;;;;;21.43;45.65;101305.58;110245;1265;19688;-39
2023/08/10 07:22:02;;;;;;;;;8.00;7.00;;;;;21.45;45.62;101309.58;110299;1265;19980;-39
2023/08/10 07:24:28;;;;;;;;;4.00;4.00;;;;;21.45;45.82;101312.09;110236;1251;19732;-39
2023/08/10 07:26:54;;;;;;;;;5.00;5.00;;;;;21.49;45.51;101313.16;110279;1250;18189;-40
2023/08/10 07:29:20;;;;;;;;;7.00;5.00;;;;;21.48;45.86;101312.00;110337;1265;20733;-40
2023/08/10 07:31:46;;;;;;;;;9.00;8.00;;;;;21.49;45.60;101313.32;109915;1265;539648;-38
2023/08/10 07:34:12;;;;;;;;;7.00;7.00;;;;;21.50;45.83;101312.51;110289;1251;19825;-39
2023/08/10 07:36:38;;;;;;;;;4.00;4.00;;;;;21.52;45.69;101317.27;110282;1265;19108;-39
2023/08/10 07:39:04;;;;;;;;;5.00;5.00;;;;;21.49;45.95;101314.14;110320;1251;19375;-40
2023/08/10 07:41:30;;;;;;;;;4.00;4.00;;;;;21.50;45.92;101319.21;110357;1265;22463;-39
2023/08/10 07:43:56;;;;;;;;;4.50;4.50;;;;;21.53;46.00;101316.08;110322;1249;20496;-39
2023/08/10 07:46:22;;;;;;;;;5.00;5.00;;;;;21.50;46.00;101320.09;110363;1250;20131;-39
2023/08/10 07:48:48;;;;;;;;;7.00;7.00;;;;;21.51;46.02;101314.92;110335;1265;18718;-39
2023/08/10 07:51:14;;;;;;;;;6.00;6.00;;;;;21.55;45.69;101321.60;110349;1265;19144;-39
2023/08/10 07:53:43;;;;;;;;;5.00;5.00;;;;;21.58;45.99;101322.44;110337;1249;18519;-40
2023/08/10 07:56:11;;;;;;;;;4.00;4.00;;;;;21.59;45.65;101321.19;110343;1265;19911;-40
2023/08/10 07:58:37;;;;;;;;;4.50;4.50;;;;;21.58;45.40;101322.55;110156;1265;20651;-39
2023/08/10 08:01:05;;;;;;;;;5.00;5.00;;;;;21.62;45.17;101324.48;110137;1266;19452;-40
2023/08/10 08:03:34;;;;;;;;;5.00;5.00;;;;;21.61;45.45;101323.45;110367;1265;19743;-39
2023/08/10 08:06:01;;;;;;;;;7.00;5.00;;;;;21.64;45.27;101326.63;110338;1265;20726;-38
2023/08/10 08:08:28;;;;;;;;;5.00;5.00;;;;;21.65;44.92;101327.39;110304;1265;18369;-39
2023/08/10 08:10:55;;;;;;;;;5.00;4.50;;;;;21.66;44.45;101324.13;110263;1265;18606;-40
2023/08/10 08:13:23;;;;;;;;;5.00;4.00;;;;;21.59;44.40;101326.38;110302;1265;21026;-38
2023/08/10 08:15:49;;;;;;;;;5.00;5.00;;;;;21.63;44.07;101328.30;110325;1265;19547;-39
2023/08/10 08:18:18;;;;;;;;;5.00;5.00;;;;;21.67;43.84;101327.84;110373;1250;19201;-40
2023/08/10 08:20:44;;;;;;;;;4.00;4.00;;;;;21.69;43.75;101328.34;110350;1250;20309;-39
2023/08/10 08:23:10;;;;;;;;;5.00;5.00;;;;;21.70;43.47;101331.25;110352;1265;18704;-39
2023/08/10 08:25:39;;;;;;;;;6.00;5.00;;;;;21.67;43.03;101325.95;110131;1265;19902;-38
2023/08/10 08:28:05;;;;;;;;;4.00;4.00;;;;;21.71;42.64;101325.91;110376;1265;20544;-39
2023/08/10 08:30:32;;;;;;;;;5.00;4.50;;;;;21.72;42.61;101324.55;110330;1265;18491;-39
2023/08/10 08:32:58;;;;;;;;;7.00;5.00;;;;;21.78;43.19;101326.50;110314;1250;18781;-38
2023/08/10 08:35:26;;;;;;;;;4.00;4.00;;;;;21.81;43.07;101324.98;110360;1265;20660;-49
2023/08/10 08:37:56;;;;;;;;;7.00;6.00;;;;;21.87;43.02;101324.54;110292;1265;19371;-39
2023/08/10 08:40:25;;;;;;;;;6.00;6.00;;;;;21.92;43.26;101328.55;110336;1265;18649;-39
2023/08/10 08:42:54;;;;;;;;;5.00;5.00;;;;;21.95;43.28;101330.59;110322;1265;21960;-39
2023/08/10 08:45:20;;;;;;;;;6.00;4.50;;;;;21.95;43.47;101331.95;110149;1251;20925;-38
2023/08/10 08:47:47;;;;;;;;;5.00;5.00;;;;;21.99;43.10;101330.23;110347;1251;18664;-40
2023/08/10 08:50:14;;;;;;;;;4.00;4.00;;;;;21.96;42.85;101330.59;110338;1265;19348;-38
2023/08/10 08:52:41;;;;;;;;;5.00;5.00;;;;;21.95;43.11;101329.27;110335;1265;19584;-39
2023/08/10 08:55:10;;;;;;;;;5.00;5.00;;;;;21.95;43.07;101328.63;110133;1265;22689;-39
2023/08/10 08:57:41;;;;;;;;;4.00;4.00;;;;;21.95;42.93;101331.52;110328;1251;22382;-40
2023/08/10 09:00:08;;;;;;;;;4.50;4.50;;;;;21.92;42.80;101328.39;110348;1265;20230;-39
2023/08/10 09:02:34;;;;;;;;;5.33;4.67;;;;;21.86;43.39;101320.29;110363;1265;20136;-38
2023/08/10 09:05:01;;;;;;;;;5.00;5.00;;;;;21.86;43.39;101320.61;110339;1265;19416;-38
2023/08/10 09:07:27;;;;;;;;;5.00;5.00;;;;;21.89;43.62;101324.06;110341;1265;19720;-39
2023/08/10 09:09:53;;;;;;;;;5.00;5.00;;;;;21.92;43.46;101324.08;110357;1265;20256;-39
2023/08/10 09:12:19;;;;;;;;;6.00;5.00;;;;;21.89;43.60;101321.65;110324;1250;20371;-39
2023/08/10 09:14:45;;;;;;;;;5.00;5.00;;;;;21.91;43.76;101320.91;110329;1249;19797;-40
2023/08/10 09:17:11;;;;;;;;;5.00;5.00;;;;;21.89;43.45;101323.02;110312;1265;18585;-39
2023/08/10 09:19:37;;;;;;;;;5.00;5.00;;;;;21.94;43.23;101327.42;110295;1265;20680;-37
2023/08/10 09:22:03;;;;;;;;;4.00;4.00;;;;;21.91;43.46;101331.77;110336;1265;19800;-40
2023/08/10 09:24:30;;;;;;;;;4.00;4.00;;;;;21.91;43.33;101334.98;110343;1265;18836;-40
2023/08/10 09:26:56;;;;;;;;;4.50;4.50;;;;;21.88;42.92;101332.13;110297;1265;19575;-38
2023/08/10 09:29:22;;;;;;;;;4.50;4.50;;;;;21.88;43.32;101334.85;110373;1265;18303;-39
2023/08/10 09:31:48;;;;;;;;;4.67;4.67;;;;;21.87;43.09;101337.02;110141;1266;19912;-40
2023/08/10 09:34:18;;;;;;;;;5.00;5.00;;;;;21.86;43.16;101336.48;110139;1260;22753;-38
2023/08/10 09:36:44;;;;;;;;;5.00;5.00;;;;;21.90;42.88;101338.57;110317;1265;19508;-39
2023/08/10 09:39:10;;;;;;;;;4.00;4.00;;;;;21.86;42.83;101340.83;110127;1265;19948;-39
2023/08/10 09:41:36;;;;;;;;;7.50;7.50;;;;;21.88;42.62;101340.86;110319;1265;20773;-38
2023/08/10 09:44:02;;;;;;;;;6.00;5.00;;;;;21.85;42.55;101338.54;110232;1265;18698;-39
2023/08/10 09:46:28;;;;;;;;;7.50;6.00;;;;;21.83;42.30;101343.93;110262;1265;22148;-38
2023/08/10 09:48:54;;;;;;;;;5.00;5.00;;;;;21.85;42.30;101343.84;110355;1250;20991;-39
2023/08/10 09:51:21;;;;;;;;;5.00;5.00;;;;;21.87;42.39;101343.25;110308;1265;18483;-39
2023/08/10 09:53:47;;;;;;;;;5.00;5.00;;;;;21.86;42.23;101345.21;110278;1265;19274;-39
2023/08/10 09:56:13;;;;;;;;;5.00;5.00;;;;;21.85;42.27;101345.41;110385;1265;19553;-39
2023/08/10 09:58:40;;;;;;;;;4.00;4.00;;;;;21.85;41.96;101346.72;110338;1249;18591;-38
2023/08/10 10:01:07;;;;;;;;;5.50;4.50;;;;;21.88;41.83;101350.56;110143;1266;20023;-39
2023/08/10 10:03:37;;;;;;;;;5.00;4.00;;;;;21.88;41.81;101345.86;110346;1265;21558;-39
2023/08/10 10:06:03;;;;;;;;;4.67;4.67;;;;;21.90;41.72;101348.61;110320;1265;19593;-40
2023/08/10 10:08:29;;;;;;;;;4.00;4.00;;;;;21.93;41.75;101348.15;110274;1257;22209;-39
2023/08/10 10:10:55;;;;;;;;;5.00;5.00;;;;;21.89;41.77;101348.06;110239;1265;20382;-38
2023/08/10 10:13:21;;;;;;;;;5.00;5.00;;;;;21.89;41.54;101348.05;110265;1265;18354;-38
2023/08/10 10:15:48;;;;;;;;;4.00;4.00;;;;;21.87;42.02;101351.70;110285;1265;20140;-39
2023/08/10 10:18:14;;;;;;;;;4.00;4.00;;;;;21.90;41.87;101348.99;110290;1265;20734;-38
2023/08/10 10:20:40;;;;;;;;;6.00;5.00;;;;;21.93;41.42;101350.75;110302;1265;19448;-39
2023/08/10 10:23:06;;;;;;;;;4.00;4.00;;;;;21.94;41.72;101354.27;110293;1250;19929;-39
2023/08/10 10:25:32;;;;;;;;;4.00;4.00;;;;;21.89;41.81;101353.79;110293;1265;19356;-42
2023/08/10 10:27:58;;;;;;;;;5.00;4.00;;;;;21.92;41.55;101356.91;110279;1265;18238;-39
2023/08/10 10:30:24;;;;;;;;;4.00;4.00;;;;;21.90;41.14;101354.55;110315;1265;20440;-40
2023/08/10 10:32:50;;;;;;;;;5.00;5.00;;;;;21.85;41.32;101361.18;110281;1265;20890;-39
2023/08/10 10:35:16;;;;;;;;;4.00;4.00;;;;;21.82;41.19;101358.77;110318;1265;19614;-39
2023/08/10 10:37:43;;;;;;;;;5.00;5.00;;;;;21.84;41.25;101359.54;110297;1265;18610;-40
2023/08/10 10:40:09;;;;;;;;;4.00;4.00;;;;;21.84;41.16;101363.79;110298;1265;22020;-40
2023/08/10 10:42:35;;;;;;;;;5.00;4.00;;;;;21.83;41.19;101358.06;110269;1250;19590;-39
2023/08/10 10:45:01;;;;;;;;;4.00;4.00;;;;;21.85;41.08;101357.91;110332;1265;19689;-39
2023/08/10 10:47:27;;;;;;;;;5.00;5.00;;;;;21.86;41.00;101354.91;110326;1265;19364;-39
2023/08/10 10:49:54;;;;;;;;;4.00;4.00;;;;;21.91;41.32;101356.26;110335;1265;18157;-40
2023/08/10 10:52:20;;;;;;;;;6.00;5.00;;;;;21.87;41.32;101356.45;110341;1250;20028;-40
2023/08/10 10:54:46;;;;;;;;;5.00;4.00;;;;;21.84;41.35;101356.11;110318;1265;20873;-39
2023/08/10 10:57:12;;;;;;;;;4.00;4.00;;;;;21.88;41.00;101356.78;110354;1249;20959;-39
2023/08/10 10:59:38;;;;;;;;;5.00;5.00;;;;;21.93;41.26;101354.96;110310;1250;23425;-39
2023/08/10 11:02:04;;;;;;;;;3.00;3.00;;;;;21.88;41.33;101345.48;110305;1250;21808;-38
2023/08/10 11:04:30;;;;;;;;;5.00;5.00;;;;;21.84;41.09;101348.85;110347;1257;19406;-39